sensor_id;sensor_type;location;lat;lon;timestamp;pressure;altitude;pressure_sealevel;temperature;humidity
23223;BME280;11780;13.904;100.620;2023-12-04T00:00:09;101243.09;;;30.11;nan
23223;BME280;11780;13.904;100.620;2023-12-04T00:02:40;101245.25;;;30.14;nan
23223;BME280;11780;13.904;100.620;2023-12-04T00:05:10;101245.25;;;30.14;nan
23223;BME280;11780;13.904;100.620;2023-12-04T00:07:41;101259.03;;;30.14;nan
23223;BME280;11780;13.904;100.620;2023-12-04T00:10:12;101264.56;;;30.14;nan
23223;BME280;11780;13.904;100.620;2023-12-04T00:12:42;101267.00;;;30.16;nan
23223;BME280;11780;13.904;100.620;2023-12-04T00:15:13;101268.13;;;30.15;nan
23223;BME280;11780;13.904;100.620;2023-12-04T00:17:43;101275.59;;;30.14;nan
23223;BME280;11780;13.904;100.620;2023-12-04T00:20:14;101281.41;;;30.13;nan
23223;BME280;11780;13.904;100.620;2023-12-04T00:22:45;101281.72;;;30.11;nan
23223;BME280;11780;13.904;100.620;2023-12-04T00:25:16;101278.66;;;30.13;nan
23223;BME280;11780;13.904;100.620;2023-12-04T00:27:46;101286.09;;;30.12;nan
23223;BME280;11780;13.904;100.620;2023-12-04T00:30:17;101291.94;;;30.11;nan
23223;BME280;11780;13.904;100.620;2023-12-04T00:32:48;101284.78;;;30.10;nan
23223;BME280;11780;13.904;100.620;2023-12-04T00:35:18;101299.09;;;30.12;nan
23223;BME280;11780;13.904;100.620;2023-12-04T00:37:49;101297.97;;;30.13;nan
23223;BME280;11780;13.904;100.620;2023-12-04T00:40:20;101299.91;;;30.12;nan
23223;BME280;11780;13.904;100.620;2023-12-04T00:42:50;101306.25;;;30.13;nan
23223;BME280;11780;13.904;100.620;2023-12-04T00:45:21;101302.34;;;30.14;nan
23223;BME280;11780;13.904;100.620;2023-12-04T00:47:52;101310.34;;;30.15;nan
23223;BME280;11780;13.904;100.620;2023-12-04T00:50:22;101307.06;;;30.13;nan
23223;BME280;11780;13.904;100.620;2023-12-04T00:52:54;101316.66;;;30.16;nan
23223;BME280;11780;13.904;100.620;2023-12-04T00:55:24;101317.50;;;30.16;nan
23223;BME280;11780;13.904;100.620;2023-12-04T00:57:54;101321.66;;;30.14;nan
23223;BME280;11780;13.904;100.620;2023-12-04T01:00:25;101323.00;;;30.16;nan
23223;BME280;11780;13.904;100.620;2023-12-04T01:02:57;101335.69;;;30.17;nan
23223;BME280;11780;13.904;100.620;2023-12-04T01:05:27;101329.84;;;30.19;nan
23223;BME280;11780;13.904;100.620;2023-12-04T01:07:58;101338.97;;;30.19;nan
23223;BME280;11780;13.904;100.620;2023-12-04T01:10:28;101339.75;;;30.20;nan
23223;BME280;11780;13.904;100.620;2023-12-04T01:12:59;101342.53;;;30.20;nan
23223;BME280;11780;13.904;100.620;2023-12-04T01:15:30;101350.81;;;30.20;nan
23223;BME280;11780;13.904;100.620;2023-12-04T01:18:00;101342.53;;;30.20;nan
23223;BME280;11780;13.904;100.620;2023-12-04T01:20:32;101350.81;;;30.20;nan
23223;BME280;11780;13.904;100.620;2023-12-04T01:23:03;101353.03;;;30.18;nan
23223;BME280;11780;13.904;100.620;2023-12-04T01:25:34;101350.00;;;30.19;nan
23223;BME280;11780;13.904;100.620;2023-12-04T01:28:04;101356.31;;;30.20;nan
23223;BME280;11780;13.904;100.620;2023-12-04T01:30:35;101361.84;;;30.20;nan
23223;BME280;11780;13.904;100.620;2023-12-04T01:33:05;101364.59;;;30.20;nan
23223;BME280;11780;13.904;100.620;2023-12-04T01:35:36;101363.47;;;30.21;nan
23223;BME280;11780;13.904;100.620;2023-12-04T01:38:07;101367.69;;;30.18;nan
23223;BME280;11780;13.904;100.620;2023-12-04T01:40:38;101365.72;;;30.19;nan
23223;BME280;11780;13.904;100.620;2023-12-04T01:43:08;101369.31;;;30.19;nan
23223;BME280;11780;13.904;100.620;2023-12-04T01:45:39;101381.69;;;30.22;nan
23223;BME280;11780;13.904;100.620;2023-12-04T01:48:10;101361.84;;;30.20;nan
23223;BME280;11780;13.904;100.620;2023-12-04T01:50:40;101374.84;;;30.19;nan
23223;BME280;11780;13.904;100.620;2023-12-04T01:53:11;101373.72;;;30.20;nan
23223;BME280;11780;13.904;100.620;2023-12-04T01:55:42;101384.94;;;30.24;nan
23223;BME280;11780;13.904;100.620;2023-12-04T01:58:13;101389.63;;;30.23;nan
23223;BME280;11780;13.904;100.620;2023-12-04T02:00:47;101392.72;;;30.22;nan
23223;BME280;11780;13.904;100.620;2023-12-04T02:03:17;101391.06;;;30.21;nan
23223;BME280;11780;13.904;100.620;2023-12-04T02:05:49;101401.00;;;30.22;nan
23223;BME280;11780;13.904;100.620;2023-12-04T02:08:21;101397.41;;;30.21;nan
23223;BME280;11780;13.904;100.620;2023-12-04T02:10:52;101401.78;;;30.22;nan
23223;BME280;11780;13.904;100.620;2023-12-04T02:13:23;101403.75;;;30.22;nan
23223;BME280;11780;13.904;100.620;2023-12-04T02:15:54;101401.00;;;30.22;nan
23223;BME280;11780;13.904;100.620;2023-12-04T02:18:27;101410.06;;;30.22;nan
23223;BME280;11780;13.904;100.620;2023-12-04T02:20:57;101407.03;;;30.24;nan
23223;BME280;11780;13.904;100.620;2023-12-04T02:23:28;101415.59;;;30.22;nan
23223;BME280;11780;13.904;100.620;2023-12-04T02:26:03;101420.31;;;30.22;nan
23223;BME280;11780;13.904;100.620;2023-12-04T02:28:37;101415.91;;;30.21;nan
23223;BME280;11780;13.904;100.620;2023-12-04T02:31:09;101405.69;;;30.21;nan
23223;BME280;11780;13.904;100.620;2023-12-04T02:33:41;101413.16;;;30.21;nan
23223;BME280;11780;13.904;100.620;2023-12-04T02:36:13;101405.38;;;30.23;nan
23223;BME280;11780;13.904;100.620;2023-12-04T02:38:44;101411.72;;;30.23;nan
23223;BME280;11780;13.904;100.620;2023-12-04T02:41:15;101409.78;;;30.24;nan
23223;BME280;11780;13.904;100.620;2023-12-04T02:43:47;101407.56;;;30.26;nan
23223;BME280;11780;13.904;100.620;2023-12-04T02:46:17;101405.06;;;30.25;nan
23223;BME280;11780;13.904;100.620;2023-12-04T02:48:48;101408.66;;;30.25;nan
23223;BME280;11780;13.904;100.620;2023-12-04T02:51:19;101414.19;;;30.25;nan
23223;BME280;11780;13.904;100.620;2023-12-04T02:53:50;101408.06;;;30.28;nan
23223;BME280;11780;13.904;100.620;2023-12-04T02:56:20;101414.38;;;30.29;nan
23223;BME280;11780;13.904;100.620;2023-12-04T02:58:51;101411.31;;;30.30;nan
23223;BME280;11780;13.904;100.620;2023-12-04T03:01:22;101415.44;;;30.33;nan
23223;BME280;11780;13.904;100.620;2023-12-04T03:03:52;101412.06;;;30.36;nan
23223;BME280;11780;13.904;100.620;2023-12-04T03:06:23;101410.13;;;30.36;nan
23223;BME280;11780;13.904;100.620;2023-12-04T03:08:54;101404.59;;;30.36;nan
23223;BME280;11780;13.904;100.620;2023-12-04T03:11:25;101412.56;;;30.38;nan
23223;BME280;11780;13.904;100.620;2023-12-04T03:13:55;101408.69;;;30.39;nan
23223;BME280;11780;13.904;100.620;2023-12-04T03:16:26;101407.56;;;30.40;nan
23223;BME280;11780;13.904;100.620;2023-12-04T03:18:56;101399.28;;;30.40;nan
23223;BME280;11780;13.904;100.620;2023-12-04T03:21:27;101398.16;;;30.41;nan
23223;BME280;11780;13.904;100.620;2023-12-04T03:23:58;101387.94;;;30.42;nan
23223;BME280;11780;13.904;100.620;2023-12-04T03:26:28;101390.38;;;30.43;nan
23223;BME280;11780;13.904;100.620;2023-12-04T03:28:59;101382.09;;;30.43;nan
23223;BME280;11780;13.904;100.620;2023-12-04T03:31:29;101378.84;;;30.41;nan
23223;BME280;11780;13.904;100.620;2023-12-04T03:34:01;101382.94;;;30.44;nan
23223;BME280;11780;13.904;100.620;2023-12-04T03:36:32;101382.94;;;30.44;nan
23223;BME280;11780;13.904;100.620;2023-12-04T03:39:03;101378.22;;;30.44;nan
23223;BME280;11780;13.904;100.620;2023-12-04T03:41:34;101367.69;;;30.46;nan
23223;BME280;11780;13.904;100.620;2023-12-04T03:44:05;101368.22;;;30.48;nan
23223;BME280;11780;13.904;100.620;2023-12-04T03:46:35;101366.56;;;30.47;nan
23223;BME280;11780;13.904;100.620;2023-12-04T03:49:06;101368.50;;;30.47;nan
23223;BME280;11780;13.904;100.620;2023-12-04T03:51:36;101377.63;;;30.47;nan
23223;BME280;11780;13.904;100.620;2023-12-04T03:54:07;101365.13;;;30.50;nan
23223;BME280;11780;13.904;100.620;2023-12-04T03:56:37;101362.38;;;30.50;nan
23223;BME280;11780;13.904;100.620;2023-12-04T03:59:09;101363.22;;;30.50;nan
23223;BME280;11780;13.904;100.620;2023-12-04T04:01:40;101350.72;;;30.53;nan
23223;BME280;11780;13.904;100.620;2023-12-04T04:04:11;101357.38;;;30.52;nan
23223;BME280;11780;13.904;100.620;2023-12-04T04:06:42;101355.13;;;30.54;nan
23223;BME280;11780;13.904;100.620;2023-12-04T04:09:12;101350.72;;;30.53;nan
23223;BME280;11780;13.904;100.620;2023-12-04T04:11:43;101354.63;;;30.52;nan
23223;BME280;11780;13.904;100.620;2023-12-04T04:14:14;101347.13;;;30.52;nan
23223;BME280;11780;13.904;100.620;2023-12-04T04:16:45;101340.22;;;30.55;nan
23223;BME280;11780;13.904;100.620;2023-12-04T04:19:16;101333.03;;;30.54;nan
23223;BME280;11780;13.904;100.620;2023-12-04T04:21:46;101331.94;;;30.55;nan
23223;BME280;11780;13.904;100.620;2023-12-04T04:24:17;101323.91;;;30.53;nan
23223;BME280;11780;13.904;100.620;2023-12-04T04:26:48;101320.59;;;30.57;nan
23223;BME280;11780;13.904;100.620;2023-12-04T04:29:18;101314.78;;;30.58;nan
23223;BME280;11780;13.904;100.620;2023-12-04T04:31:49;101314.78;;;30.58;nan
23223;BME280;11780;13.904;100.620;2023-12-04T04:34:21;101308.13;;;30.59;nan
23223;BME280;11780;13.904;100.620;2023-12-04T04:36:52;101304.03;;;30.57;nan
23223;BME280;11780;13.904;100.620;2023-12-04T04:39:22;101295.44;;;30.58;nan
23223;BME280;11780;13.904;100.620;2023-12-04T04:41:53;101288.47;;;30.61;nan
23223;BME280;11780;13.904;100.620;2023-12-04T04:44:24;101288.81;;;30.59;nan
23223;BME280;11780;13.904;100.620;2023-12-04T04:46:54;101280.19;;;30.61;nan
23223;BME280;11780;13.904;100.620;2023-12-04T04:49:25;101275.47;;;30.61;nan
23223;BME280;11780;13.904;100.620;2023-12-04T04:51:56;101275.00;;;30.59;nan
23223;BME280;11780;13.904;100.620;2023-12-04T04:54:26;101274.69;;;30.61;nan
23223;BME280;11780;13.904;100.620;2023-12-04T04:56:57;101263.63;;;30.61;nan
23223;BME280;11780;13.904;100.620;2023-12-04T04:59:28;101256.16;;;30.61;nan
23223;BME280;11780;13.904;100.620;2023-12-04T05:02:00;101248.19;;;30.60;nan
23223;BME280;11780;13.904;100.620;2023-12-04T05:04:31;101249.81;;;30.61;nan
23223;BME280;11780;13.904;100.620;2023-12-04T05:07:02;101245.94;;;30.62;nan
23223;BME280;11780;13.904;100.620;2023-12-04T05:09:33;101231.81;;;30.63;nan
23223;BME280;11780;13.904;100.620;2023-12-04T05:12:04;101226.63;;;30.62;nan
23223;BME280;11780;13.904;100.620;2023-12-04T05:14:35;101219.97;;;30.63;nan
23223;BME280;11780;13.904;100.620;2023-12-04T05:17:05;101215.25;;;30.63;nan
23223;BME280;11780;13.904;100.620;2023-12-04T05:19:36;101211.34;;;30.64;nan
23223;BME280;11780;13.904;100.620;2023-12-04T05:22:08;101203.06;;;30.64;nan
23223;BME280;11780;13.904;100.620;2023-12-04T05:24:39;101206.34;;;30.66;nan
23223;BME280;11780;13.904;100.620;2023-12-04T05:27:10;101197.56;;;30.64;nan
23223;BME280;11780;13.904;100.620;2023-12-04T05:29:40;101196.13;;;30.67;nan
23223;BME280;11780;13.904;100.620;2023-12-04T05:32:11;101187.53;;;30.68;nan
23223;BME280;11780;13.904;100.620;2023-12-04T05:34:42;101187.00;;;30.66;nan
23223;BME280;11780;13.904;100.620;2023-12-04T05:37:12;101176.47;;;30.68;nan
23223;BME280;11780;13.904;100.620;2023-12-04T05:39:43;101164.31;;;30.70;nan
23223;BME280;11780;13.904;100.620;2023-12-04T05:42:13;101163.97;;;30.71;nan
23223;BME280;11780;13.904;100.620;2023-12-04T05:44:44;101156.53;;;30.72;nan
23223;BME280;11780;13.904;100.620;2023-12-04T05:47:14;101151.63;;;30.68;nan
23223;BME280;11780;13.904;100.620;2023-12-04T05:49:45;101144.34;;;30.73;nan
23223;BME280;11780;13.904;100.620;2023-12-04T05:52:15;101133.59;;;30.71;nan
23223;BME280;11780;13.904;100.620;2023-12-04T05:54:46;101125.84;;;30.73;nan
23223;BME280;11780;13.904;100.620;2023-12-04T05:57:16;101126.34;;;30.75;nan
23223;BME280;11780;13.904;100.620;2023-12-04T05:59:47;101121.63;;;30.76;nan
23223;BME280;11780;13.904;100.620;2023-12-04T06:02:18;101114.16;;;30.76;nan
23223;BME280;11780;13.904;100.620;2023-12-04T06:04:49;101113.84;;;30.78;nan
23223;BME280;11780;13.904;100.620;2023-12-04T06:07:20;101105.06;;;30.76;nan
23223;BME280;11780;13.904;100.620;2023-12-04T06:09:50;101097.28;;;30.78;nan
23223;BME280;11780;13.904;100.620;2023-12-04T06:12:21;101088.97;;;30.78;nan
23223;BME280;11780;13.904;100.620;2023-12-04T06:14:51;101080.69;;;30.78;nan
23223;BME280;11780;13.904;100.620;2023-12-04T06:17:22;101078.16;;;30.81;nan
23223;BME280;11780;13.904;100.620;2023-12-04T06:19:53;101071.78;;;30.81;nan
23223;BME280;11780;13.904;100.620;2023-12-04T06:22:23;101065.13;;;30.82;nan
23223;BME280;11780;13.904;100.620;2023-12-04T06:24:54;101064.34;;;30.81;nan
23223;BME280;11780;13.904;100.620;2023-12-04T06:27:25;101055.41;;;30.84;nan
23223;BME280;11780;13.904;100.620;2023-12-04T06:29:56;101048.56;;;30.82;nan
23223;BME280;11780;13.904;100.620;2023-12-04T06:32:27;101054.91;;;30.82;nan
23223;BME280;11780;13.904;100.620;2023-12-04T06:34:58;101042.41;;;30.85;nan
23223;BME280;11780;13.904;100.620;2023-12-04T06:37:29;101045.47;;;30.83;nan
23223;BME280;11780;13.904;100.620;2023-12-04T06:40:00;101035.75;;;30.86;nan
23223;BME280;11780;13.904;100.620;2023-12-04T06:42:32;101038.53;;;30.86;nan
23223;BME280;11780;13.904;100.620;2023-12-04T06:45:04;101040.16;;;30.87;nan
23223;BME280;11780;13.904;100.620;2023-12-04T06:47:35;101034.31;;;30.89;nan
23223;BME280;11780;13.904;100.620;2023-12-04T06:50:07;101032.38;;;30.89;nan
23223;BME280;11780;13.904;100.620;2023-12-04T06:52:38;101032.84;;;30.91;nan
23223;BME280;11780;13.904;100.620;2023-12-04T06:55:09;101028.78;;;30.89;nan
23223;BME280;11780;13.904;100.620;2023-12-04T06:57:39;101020.19;;;30.90;nan
23223;BME280;11780;13.904;100.620;2023-12-04T07:00:10;101016.28;;;30.91;nan
23223;BME280;11780;13.904;100.620;2023-12-04T07:02:49;101005.72;;;30.93;nan
23223;BME280;11780;13.904;100.620;2023-12-04T07:05:20;101006.84;;;30.92;nan
23223;BME280;11780;13.904;100.620;2023-12-04T07:07:51;101001.66;;;30.91;nan
23223;BME280;11780;13.904;100.620;2023-12-04T07:10:22;100997.44;;;30.93;nan
23223;BME280;11780;13.904;100.620;2023-12-04T07:12:52;101002.16;;;30.93;nan
23223;BME280;11780;13.904;100.620;2023-12-04T07:15:23;100997.44;;;30.93;nan
23223;BME280;11780;13.904;100.620;2023-12-04T07:17:54;100991.91;;;30.93;nan
23223;BME280;11780;13.904;100.620;2023-12-04T07:20:24;100982.50;;;30.94;nan
23223;BME280;11780;13.904;100.620;2023-12-04T07:22:55;100986.09;;;30.95;nan
23223;BME280;11780;13.904;100.620;2023-12-04T07:25:28;100980.56;;;30.95;nan
23223;BME280;11780;13.904;100.620;2023-12-04T07:27:58;100984.97;;;30.96;nan
23223;BME280;11780;13.904;100.620;2023-12-04T07:30:29;100984.13;;;30.95;nan
23223;BME280;11780;13.904;100.620;2023-12-04T07:33:00;100981.88;;;30.97;nan
23223;BME280;11780;13.904;100.620;2023-12-04T07:35:31;100983.81;;;30.97;nan
23223;BME280;11780;13.904;100.620;2023-12-04T07:38:02;100977.97;;;30.98;nan
23223;BME280;11780;13.904;100.620;2023-12-04T07:40:33;100990.16;;;30.97;nan
23223;BME280;11780;13.904;100.620;2023-12-04T07:43:03;100989.03;;;30.98;nan
23223;BME280;11780;13.904;100.620;2023-12-04T07:45:34;100981.88;;;30.97;nan
23223;BME280;11780;13.904;100.620;2023-12-04T07:48:07;100975.22;;;30.98;nan
23223;BME280;11780;13.904;100.620;2023-12-04T07:50:38;100980.72;;;30.98;nan
23223;BME280;11780;13.904;100.620;2023-12-04T07:53:08;100981.88;;;30.97;nan
23223;BME280;11780;13.904;100.620;2023-12-04T07:55:42;100977.16;;;30.98;nan
23223;BME280;11780;13.904;100.620;2023-12-04T07:58:13;100980.41;;;31.00;nan
23223;BME280;11780;13.904;100.620;2023-12-04T08:00:44;100980.41;;;31.00;nan
23223;BME280;11780;13.904;100.620;2023-12-04T08:03:15;100978.47;;;31.01;nan
23223;BME280;11780;13.904;100.620;2023-12-04T08:05:46;100965.78;;;30.99;nan
23223;BME280;11780;13.904;100.620;2023-12-04T08:08:16;100962.69;;;31.01;nan
23223;BME280;11780;13.904;100.620;2023-12-04T08:10:47;100957.16;;;31.01;nan
23223;BME280;11780;13.904;100.620;2023-12-04T08:13:18;100963.53;;;31.02;nan
23223;BME280;11780;13.904;100.620;2023-12-04T08:15:48;100962.41;;;31.03;nan
23223;BME280;11780;13.904;100.620;2023-12-04T08:18:19;100966.78;;;31.04;nan
23223;BME280;11780;13.904;100.620;2023-12-04T08:20:49;100964.31;;;31.02;nan
23223;BME280;11780;13.904;100.620;2023-12-04T08:23:20;100960.75;;;31.02;nan
23223;BME280;11780;13.904;100.620;2023-12-04T08:25:51;100965.47;;;31.01;nan
23223;BME280;11780;13.904;100.620;2023-12-04T08:28:22;100963.19;;;31.03;nan
23223;BME280;11780;13.904;100.620;2023-12-04T08:30:52;100967.09;;;31.02;nan
23223;BME280;11780;13.904;100.620;2023-12-04T08:33:23;100964.03;;;31.04;nan
23223;BME280;11780;13.904;100.620;2023-12-04T08:35:54;100956.88;;;31.03;nan
23223;BME280;11780;13.904;100.620;2023-12-04T08:38:25;100959.31;;;31.04;nan
23223;BME280;11780;13.904;100.620;2023-12-04T08:40:55;100956.25;;;31.06;nan
23223;BME280;11780;13.904;100.620;2023-12-04T08:43:26;100960.44;;;31.03;nan
23223;BME280;11780;13.904;100.620;2023-12-04T08:45:57;100960.94;;;31.05;nan
23223;BME280;11780;13.904;100.620;2023-12-04T08:48:27;100947.94;;;31.06;nan
23223;BME280;11780;13.904;100.620;2023-12-04T08:50:58;100957.03;;;31.06;nan
23223;BME280;11780;13.904;100.620;2023-12-04T08:53:28;100960.59;;;31.07;nan
23223;BME280;11780;13.904;100.620;2023-12-04T08:55:59;100963.69;;;31.05;nan
23223;BME280;11780;13.904;100.620;2023-12-04T08:58:30;100964.53;;;31.06;nan
23223;BME280;11780;13.904;100.620;2023-12-04T09:01:01;100966.94;;;31.07;nan
23223;BME280;11780;13.904;100.620;2023-12-04T09:03:31;100966.13;;;31.07;nan
23223;BME280;11780;13.904;100.620;2023-12-04T09:06:02;100961.75;;;31.06;nan
23223;BME280;11780;13.904;100.620;2023-12-04T09:08:35;100964.81;;;31.04;nan
23223;BME280;11780;13.904;100.620;2023-12-04T09:11:11;100965.00;;;31.08;nan
23223;BME280;11780;13.904;100.620;2023-12-04T09:13:48;100963.38;;;31.07;nan
23223;BME280;11780;13.904;100.620;2023-12-04T09:16:19;100960.94;;;31.05;nan
23223;BME280;11780;13.904;100.620;2023-12-04T09:18:49;100961.75;;;31.06;nan
23223;BME280;11780;13.904;100.620;2023-12-04T09:21:20;100970.06;;;31.06;nan
23223;BME280;11780;13.904;100.620;2023-12-04T09:23:51;100963.19;;;31.03;nan
23223;BME280;11780;13.904;100.620;2023-12-04T09:26:21;100973.13;;;31.04;nan
23223;BME280;11780;13.904;100.620;2023-12-04T09:28:52;100973.63;;;31.06;nan
23223;BME280;11780;13.904;100.620;2023-12-04T09:31:23;100977.00;;;31.03;nan
23223;BME280;11780;13.904;100.620;2023-12-04T09:33:54;100978.34;;;31.06;nan
23223;BME280;11780;13.904;100.620;2023-12-04T09:36:24;100971.97;;;31.05;nan
23223;BME280;11780;13.904;100.620;2023-12-04T09:38:55;100985.47;;;31.07;nan
23223;BME280;11780;13.904;100.620;2023-12-04T09:41:26;100985.16;;;31.08;nan
23223;BME280;11780;13.904;100.620;2023-12-04T09:43:57;100990.69;;;31.08;nan
23223;BME280;11780;13.904;100.620;2023-12-04T09:46:28;100985.47;;;31.07;nan
23223;BME280;11780;13.904;100.620;2023-12-04T09:48:59;100996.22;;;31.08;nan
23223;BME280;11780;13.904;100.620;2023-12-04T09:51:30;101000.59;;;31.09;nan
23223;BME280;11780;13.904;100.620;2023-12-04T09:54:02;100999.78;;;31.09;nan
23223;BME280;11780;13.904;100.620;2023-12-04T09:56:35;101000.28;;;31.11;nan
23223;BME280;11780;13.904;100.620;2023-12-04T09:59:07;100999.47;;;31.10;nan
23223;BME280;11780;13.904;100.620;2023-12-04T10:01:40;101012.97;;;31.12;nan
23223;BME280;11780;13.904;100.620;2023-12-04T10:04:11;101009.41;;;31.11;nan
23223;BME280;11780;13.904;100.620;2023-12-04T10:06:43;101017.38;;;31.13;nan
23223;BME280;11780;13.904;100.620;2023-12-04T10:09:16;101022.38;;;31.11;nan
23223;BME280;11780;13.904;100.620;2023-12-04T10:11:50;101027.91;;;31.11;nan
23223;BME280;11780;13.904;100.620;2023-12-04T10:14:24;101026.28;;;31.10;nan
23223;BME280;11780;13.904;100.620;2023-12-04T10:16:55;101036.19;;;31.11;nan
23223;BME280;11780;13.904;100.620;2023-12-04T10:19:27;101035.41;;;31.10;nan
23223;BME280;11780;13.904;100.620;2023-12-04T10:22:00;101038.97;;;31.11;nan
23223;BME280;11780;13.904;100.620;2023-12-04T10:24:40;101033.44;;;31.11;nan
23223;BME280;11780;13.904;100.620;2023-12-04T10:27:10;101037.66;;;31.08;nan
23223;BME280;11780;13.904;100.620;2023-12-04T10:29:47;101040.91;;;31.10;nan
23223;BME280;11780;13.904;100.620;2023-12-04T10:32:20;101038.47;;;31.09;nan
23223;BME280;11780;13.904;100.620;2023-12-04T10:34:51;101049.22;;;31.10;nan
23223;BME280;11780;13.904;100.620;2023-12-04T10:37:25;101051.13;;;31.10;nan
23223;BME280;11780;13.904;100.620;2023-12-04T10:39:56;101058.63;;;31.09;nan
23223;BME280;11780;13.904;100.620;2023-12-04T10:42:28;101060.25;;;31.10;nan
23223;BME280;11780;13.904;100.620;2023-12-04T10:44:59;101058.31;;;31.11;nan
23223;BME280;11780;13.904;100.620;2023-12-04T10:47:30;101062.19;;;31.10;nan
23223;BME280;11780;13.904;100.620;2023-12-04T10:50:01;101070.47;;;31.10;nan
23223;BME280;11780;13.904;100.620;2023-12-04T10:52:33;101066.09;;;31.09;nan
23223;BME280;11780;13.904;100.620;2023-12-04T10:55:06;101064.16;;;31.09;nan
23223;BME280;11780;13.904;100.620;2023-12-04T10:57:39;101071.94;;;31.07;nan
23223;BME280;11780;13.904;100.620;2023-12-04T11:00:12;101075.50;;;31.08;nan
23223;BME280;11780;13.904;100.620;2023-12-04T11:02:47;101071.63;;;31.09;nan
23223;BME280;11780;13.904;100.620;2023-12-04T11:05:20;101073.56;;;31.08;nan
23223;BME280;11780;13.904;100.620;2023-12-04T11:07:57;101080.22;;;31.07;nan
23223;BME280;11780;13.904;100.620;2023-12-04T11:10:59;101088.84;;;31.06;nan
23223;BME280;11780;13.904;100.620;2023-12-04T11:13:35;101091.09;;;31.04;nan
23223;BME280;11780;13.904;100.620;2023-12-04T11:19:32;101099.06;;;31.05;nan
23223;BME280;11780;13.904;100.620;2023-12-04T11:22:07;101098.44;;;31.08;nan
23223;BME280;11780;13.904;100.620;2023-12-04T11:24:39;101090.16;;;31.08;nan
23223;BME280;11780;13.904;100.620;2023-12-04T11:27:11;101088.19;;;31.09;nan
23223;BME280;11780;13.904;100.620;2023-12-04T11:29:42;101092.09;;;31.08;nan
23223;BME280;11780;13.904;100.620;2023-12-04T11:32:13;101092.09;;;31.08;nan
23223;BME280;11780;13.904;100.620;2023-12-04T11:34:48;101097.13;;;31.06;nan
23223;BME280;11780;13.904;100.620;2023-12-04T11:37:19;101097.59;;;31.08;nan
23223;BME280;11780;13.904;100.620;2023-12-04T11:39:51;101110.94;;;31.06;nan
23223;BME280;11780;13.904;100.620;2023-12-04T11:42:25;101112.56;;;31.07;nan
23223;BME280;11780;13.904;100.620;2023-12-04T11:44:57;101111.25;;;31.04;nan
23223;BME280;11780;13.904;100.620;2023-12-04T11:47:29;101119.88;;;31.03;nan
23223;BME280;11780;13.904;100.620;2023-12-04T11:50:00;101121.00;;;31.02;nan
23223;BME280;11780;13.904;100.620;2023-12-04T11:52:34;101131.09;;;31.06;nan
23223;BME280;11780;13.904;100.620;2023-12-04T11:55:05;101131.09;;;31.06;nan
23223;BME280;11780;13.904;100.620;2023-12-04T11:57:40;101132.22;;;31.05;nan
23223;BME280;11780;13.904;100.620;2023-12-04T12:05:43;101149.63;;;31.06;nan
23223;BME280;11780;13.904;100.620;2023-12-04T12:08:14;101165.88;;;31.07;nan
23223;BME280;11780;13.904;100.620;2023-12-04T12:10:45;101162.94;;;31.04;nan
23223;BME280;11780;13.904;100.620;2023-12-04T12:13:17;101170.91;;;31.05;nan
23223;BME280;11780;13.904;100.620;2023-12-04T12:15:48;101169.25;;;31.04;nan
23223;BME280;11780;13.904;100.620;2023-12-04T12:18:22;101170.09;;;31.05;nan
23223;BME280;11780;13.904;100.620;2023-12-04T12:20:55;101177.56;;;31.04;nan
23223;BME280;11780;13.904;100.620;2023-12-04T12:23:27;101180.81;;;31.06;nan
23223;BME280;11780;13.904;100.620;2023-12-04T12:26:00;101187.81;;;31.04;nan
23223;BME280;11780;13.904;100.620;2023-12-04T12:28:30;101194.47;;;31.03;nan
23223;BME280;11780;13.904;100.620;2023-12-04T12:31:05;101194.47;;;31.03;nan
23223;BME280;11780;13.904;100.620;2023-12-04T12:33:35;101203.56;;;31.03;nan
23223;BME280;11780;13.904;100.620;2023-12-04T12:36:06;101198.34;;;31.02;nan
23223;BME280;11780;13.904;100.620;2023-12-04T12:38:37;101202.25;;;31.01;nan
23223;BME280;11780;13.904;100.620;2023-12-04T12:41:08;101208.56;;;31.01;nan
23223;BME280;11780;13.904;100.620;2023-12-04T12:43:41;101208.91;;;30.99;nan
23223;BME280;11780;13.904;100.620;2023-12-04T12:46:12;101210.34;;;30.97;nan
23223;BME280;11780;13.904;100.620;2023-12-04T12:48:42;101208.56;;;31.01;nan
23223;BME280;11780;13.904;100.620;2023-12-04T12:51:14;101211.66;;;30.99;nan
23223;BME280;11780;13.904;100.620;2023-12-04T12:53:45;101211.16;;;30.97;nan
23223;BME280;11780;13.904;100.620;2023-12-04T12:56:19;101218.31;;;30.98;nan
23223;BME280;11780;13.904;100.620;2023-12-04T12:58:53;101216.34;;;30.99;nan
23223;BME280;11780;13.904;100.620;2023-12-04T13:01:24;101219.94;;;30.99;nan
23223;BME280;11780;13.904;100.620;2023-12-04T13:03:58;101221.06;;;30.98;nan
23223;BME280;11780;13.904;100.620;2023-12-04T13:06:28;101227.09;;;31.01;nan
23223;BME280;11780;13.904;100.620;2023-12-04T13:08:59;101218.81;;;31.01;nan
23223;BME280;11780;13.904;100.620;2023-12-04T13:11:30;101229.69;;;30.97;nan
23223;BME280;11780;13.904;100.620;2023-12-04T13:14:01;101231.63;;;30.96;nan
23223;BME280;11780;13.904;100.620;2023-12-04T13:16:32;101235.81;;;30.94;nan
23223;BME280;11780;13.904;100.620;2023-12-04T13:19:03;101236.00;;;30.97;nan